createdAt,value
2022-10-06T00:02:36.040Z,9.22
2022-10-06T00:05:23.657Z,9.19
2022-10-06T00:08:11.286Z,9.19
2022-10-06T00:10:59.518Z,9.22
2022-10-06T00:13:47.572Z,9.22
2022-10-06T00:16:36.391Z,9.19
2022-10-06T00:19:23.894Z,9.15
2022-10-06T00:22:11.580Z,9.12
2022-10-06T00:24:59.019Z,9.16
2022-10-06T00:27:49.707Z,9.16
2022-10-06T00:30:37.365Z,9.12
2022-10-06T00:33:26.128Z,9.09
2022-10-06T00:36:13.970Z,9.09
2022-10-06T00:39:01.380Z,9.10
2022-10-06T00:41:48.775Z,9.12
2022-10-06T00:44:36.248Z,9.07
2022-10-06T00:47:27.056Z,9.04
2022-10-06T00:50:16.606Z,9.00
2022-10-06T00:53:06.146Z,8.98
2022-10-06T00:55:54.423Z,8.94
2022-10-06T00:58:41.762Z,8.92
2022-10-06T01:01:33.373Z,8.90
2022-10-06T01:04:25.241Z,8.89
2022-10-06T01:07:14.442Z,8.86
2022-10-06T01:10:02.162Z,8.84
2022-10-06T01:12:49.695Z,8.82
2022-10-06T01:15:41.022Z,8.81
2022-10-06T01:18:32.005Z,8.80
2022-10-06T01:21:31.227Z,8.77
2022-10-06T01:24:20.797Z,8.75
2022-10-06T01:27:12.449Z,8.76
2022-10-06T01:30:01.584Z,8.75
2022-10-06T01:32:49.490Z,8.77
2022-10-06T01:35:37.397Z,8.76
2022-10-06T01:38:25.959Z,8.73
2022-10-06T01:41:57.462Z,8.71
2022-10-06T01:44:50.739Z,8.66
2022-10-06T01:47:57.994Z,8.65
2022-10-06T01:51:12.223Z,8.63
2022-10-06T01:54:00.040Z,8.63
2022-10-06T01:56:49.084Z,8.66
2022-10-06T01:59:37.544Z,8.62
2022-10-06T02:02:25.805Z,8.59
2022-10-06T02:05:14.593Z,8.58
2022-10-06T02:08:03.302Z,8.60
2022-10-06T02:10:50.672Z,8.62
2022-10-06T02:13:40.614Z,8.59
2022-10-06T02:16:30.100Z,8.56
2022-10-06T02:19:18.007Z,8.63
2022-10-06T02:22:06.518Z,8.59
2022-10-06T02:24:54.508Z,8.58
2022-10-06T02:27:42.446Z,8.55
2022-10-06T02:30:31.907Z,8.53
2022-10-06T02:33:20.222Z,8.53
2022-10-06T02:36:09.877Z,8.56
2022-10-06T02:38:58.252Z,8.58
2022-10-06T02:41:46.730Z,8.58
2022-10-06T02:44:34.844Z,8.62
2022-10-06T02:47:24.381Z,8.60
2022-10-06T02:50:13.088Z,8.57
2022-10-06T02:53:00.748Z,8.56
2022-10-06T02:55:48.185Z,8.53
2022-10-06T02:58:36.044Z,8.49
2022-10-06T03:01:26.609Z,8.45
2022-10-06T03:04:16.060Z,8.42
2022-10-06T03:07:03.601Z,8.40
2022-10-06T03:09:51.201Z,8.42
2022-10-06T03:12:38.900Z,8.44
2022-10-06T03:15:26.801Z,8.55
2022-10-06T03:18:14.329Z,8.56
2022-10-06T03:21:03.826Z,8.50
2022-10-06T03:23:54.492Z,8.46
2022-10-06T03:26:45.232Z,8.39
2022-10-06T03:29:32.877Z,8.37
2022-10-06T03:32:20.143Z,8.32
2022-10-06T03:35:09.582Z,8.26
2022-10-06T03:38:00.690Z,8.26
2022-10-06T03:40:48.258Z,8.24
2022-10-06T03:43:36.868Z,8.20
2022-10-06T03:46:29.247Z,8.18
2022-10-06T03:49:16.919Z,8.22
2022-10-06T03:52:04.432Z,8.28
2022-10-06T03:54:53.082Z,8.33
2022-10-06T03:57:40.504Z,8.37
2022-10-06T04:00:27.935Z,8.46
2022-10-06T04:03:20.323Z,8.53
2022-10-06T04:06:13.310Z,8.56
2022-10-06T04:09:01.974Z,8.62
2022-10-06T04:11:51.729Z,8.70
2022-10-06T04:14:39.312Z,8.75
2022-10-06T04:17:27.018Z,8.80
2022-10-06T04:20:16.852Z,8.85
2022-10-06T04:23:06.652Z,8.91
2022-10-06T04:26:00.713Z,8.91
2022-10-06T04:28:50.334Z,8.94
2022-10-06T04:31:41.155Z,8.93
2022-10-06T04:34:28.579Z,8.94
2022-10-06T04:37:16.217Z,8.97
2022-10-06T04:40:04.249Z,9.03
2022-10-06T04:42:52.291Z,8.98
2022-10-06T04:45:41.120Z,8.93
2022-10-06T04:48:30.581Z,8.89
2022-10-06T04:51:20.224Z,8.85
2022-10-06T04:54:08.259Z,8.86
2022-10-06T04:56:58.857Z,8.90
2022-10-06T05:00:07.991Z,8.94
2022-10-06T05:03:00.575Z,8.92
2022-10-06T05:05:50.620Z,8.97
2022-10-06T05:08:39.068Z,9.05
2022-10-06T05:11:27.908Z,9.22
2022-10-06T05:14:15.564Z,9.32
2022-10-06T05:17:06.477Z,9.48
2022-10-06T05:19:55.461Z,9.57
2022-10-06T05:22:42.952Z,9.65
2022-10-06T05:25:30.478Z,9.72
2022-10-06T05:28:18.010Z,9.77
2022-10-06T05:31:08.685Z,9.85
2022-10-06T05:33:58.143Z,9.93
2022-10-06T05:36:47.071Z,9.99
2022-10-06T05:39:34.864Z,10.04
2022-10-06T05:42:26.175Z,10.06
2022-10-06T05:45:16.881Z,10.03
2022-10-06T05:48:04.950Z,10.04
2022-10-06T05:51:00.558Z,10.11
2022-10-06T05:53:50.028Z,10.15
2022-10-06T05:56:39.432Z,10.23
2022-10-06T05:59:27.061Z,10.28
2022-10-06T06:02:15.098Z,10.32
2022-10-06T06:05:03.100Z,10.39
2022-10-06T06:07:51.031Z,10.46
2022-10-06T06:10:39.862Z,10.52
2022-10-06T06:13:27.798Z,10.63
2022-10-06T06:16:16.705Z,10.74
2022-10-06T06:19:04.855Z,10.82
2022-10-06T06:21:53.431Z,10.92
2022-10-06T06:24:40.847Z,11.02
2022-10-06T06:27:29.960Z,11.14
2022-10-06T06:30:18.032Z,11.20
2022-10-06T06:33:06.106Z,11.30
2022-10-06T06:35:53.392Z,11.34
2022-10-06T06:38:41.723Z,11.37
2022-10-06T06:41:32.297Z,11.38
2022-10-06T06:44:22.201Z,11.37
2022-10-06T06:47:09.621Z,11.37
2022-10-06T06:50:00.353Z,11.39
2022-10-06T06:52:48.064Z,11.57
2022-10-06T06:55:36.119Z,11.66
2022-10-06T06:58:24.137Z,11.75
2022-10-06T07:01:15.366Z,11.86
2022-10-06T07:04:03.338Z,12.06
2022-10-06T07:06:58.403Z,12.20
2022-10-06T07:09:46.648Z,12.29
2022-10-06T07:12:34.754Z,12.38
2022-10-06T07:15:40.223Z,12.49
2022-10-06T07:18:47.340Z,12.67
2022-10-06T07:21:52.312Z,12.76
2022-10-06T07:24:57.719Z,12.88
2022-10-06T07:27:47.436Z,12.98
2022-10-06T07:30:40.420Z,13.01
2022-10-06T07:33:33.417Z,13.12
2022-10-06T07:36:22.471Z,13.17
2022-10-06T07:39:10.572Z,13.22
2022-10-06T07:41:59.059Z,13.27
2022-10-06T07:45:08.691Z,13.33
2022-10-06T07:47:59.913Z,13.36
2022-10-06T07:50:51.041Z,13.42
2022-10-06T07:53:39.312Z,13.47
2022-10-06T07:56:26.967Z,13.49
2022-10-06T07:59:14.917Z,13.52
2022-10-06T08:02:02.826Z,13.53
2022-10-06T08:04:51.345Z,13.56
2022-10-06T08:07:41.907Z,13.61
2022-10-06T08:10:30.068Z,13.65
2022-10-06T08:13:17.680Z,13.70
2022-10-06T08:16:06.573Z,13.76
2022-10-06T08:18:55.950Z,13.74
2022-10-06T08:21:43.812Z,13.79
2022-10-06T08:24:54.204Z,13.83
2022-10-06T08:27:44.182Z,13.85
2022-10-06T08:30:31.995Z,13.87
2022-10-06T08:33:21.513Z,13.93
2022-10-06T08:36:11.431Z,13.98
2022-10-06T08:38:59.531Z,14.01
2022-10-06T08:41:53.330Z,14.08
2022-10-06T08:44:45.616Z,14.17
2022-10-06T08:47:37.171Z,14.25
2022-10-06T08:50:28.635Z,14.32
2022-10-06T08:53:25.832Z,14.46
2022-10-06T08:56:19.191Z,14.63
2022-10-06T08:59:10.438Z,14.75
2022-10-06T09:01:58.641Z,14.81
2022-10-06T09:04:50.741Z,14.89
2022-10-06T09:07:46.044Z,15.02
2022-10-06T09:10:46.751Z,15.16
2022-10-06T09:13:39.965Z,15.29
2022-10-06T09:16:33.766Z,15.40
2022-10-06T09:19:33.483Z,15.50
2022-10-06T09:22:24.559Z,15.66
2022-10-06T09:25:18.206Z,15.83
2022-10-06T09:28:12.516Z,15.99
2022-10-06T09:31:04.023Z,16.10
2022-10-06T09:33:55.733Z,16.21
2022-10-06T09:37:01.974Z,16.35
2022-10-06T09:39:54.514Z,16.46
2022-10-06T09:42:57.632Z,16.64
2022-10-06T09:45:46.416Z,16.90
2022-10-06T09:48:34.360Z,17.15
2022-10-06T09:51:23.719Z,17.41
2022-10-06T09:54:14.754Z,17.69
2022-10-06T09:57:16.131Z,17.92
2022-10-06T10:00:26.404Z,18.11
2022-10-06T10:03:14.628Z,18.36
2022-10-06T10:06:02.892Z,18.71
2022-10-06T10:08:52.166Z,18.96
2022-10-06T10:11:57.451Z,19.16
2022-10-06T10:14:48.585Z,19.43
2022-10-06T10:17:45.825Z,19.65
2022-10-06T10:20:38.146Z,19.88
2022-10-06T10:23:31.980Z,20.06
2022-10-06T10:26:35.687Z,20.20
2022-10-06T10:29:46.370Z,20.25
2022-10-06T10:33:00.352Z,20.26
2022-10-06T10:35:52.952Z,20.22
2022-10-06T10:38:43.810Z,20.27
2022-10-06T10:41:47.390Z,20.32
2022-10-06T10:44:44.803Z,20.34
2022-10-06T10:47:37.965Z,20.44
2022-10-06T10:50:30.126Z,20.53
2022-10-06T10:53:23.949Z,20.61
2022-10-06T10:56:22.609Z,20.71
2022-10-06T10:59:25.217Z,20.69
2022-10-06T11:02:21.537Z,20.80
2022-10-06T11:05:28.207Z,20.98
2022-10-06T11:08:27.186Z,21.20
2022-10-06T11:11:29.924Z,21.45
2022-10-06T11:14:35.863Z,21.48
2022-10-06T11:17:40.061Z,21.65
2022-10-06T11:20:40.352Z,21.70
2022-10-06T11:23:47.795Z,21.74
2022-10-06T11:27:05.091Z,21.80
2022-10-06T11:30:03.763Z,21.92
2022-10-06T11:33:03.683Z,21.92
2022-10-06T11:35:51.559Z,21.94
2022-10-06T11:38:43.399Z,22.16
2022-10-06T11:41:35.554Z,22.31
2022-10-06T11:44:33.556Z,22.48
2022-10-06T11:47:35.017Z,22.59
2022-10-06T11:50:37.734Z,22.78
2022-10-06T11:53:39.946Z,22.87
2022-10-06T11:56:46.856Z,22.96
2022-10-06T11:59:37.944Z,22.95
2022-10-06T12:02:41.450Z,23.02
2022-10-06T12:05:55.707Z,23.08
2022-10-06T12:08:44.696Z,23.08
2022-10-06T12:11:40.895Z,23.11
2022-10-06T12:17:55.152Z,23.31
2022-10-06T12:21:06.478Z,23.26
2022-10-06T12:24:21.740Z,23.38
2022-10-06T12:27:29.971Z,23.40
2022-10-06T12:30:23.466Z,23.46
2022-10-06T12:33:19.453Z,23.46
2022-10-06T12:36:18.430Z,23.35
2022-10-06T12:39:22.127Z,23.38
2022-10-06T12:42:20.507Z,23.43
2022-10-06T12:45:17.615Z,23.48
2022-10-06T12:48:15.852Z,23.48
2022-10-06T12:51:18.282Z,23.57
2022-10-06T12:54:13.313Z,23.71
2022-10-06T12:57:01.965Z,23.74
2022-10-06T12:59:50.314Z,23.77
2022-10-06T13:02:38.205Z,23.76
2022-10-06T13:05:26.704Z,23.78
2022-10-06T13:08:25.613Z,23.71
2022-10-06T13:11:20.175Z,23.61
2022-10-06T13:14:14.694Z,23.53
2022-10-06T13:17:03.617Z,23.47
2022-10-06T13:19:52.175Z,23.27
2022-10-06T13:22:40.291Z,23.21
2022-10-06T13:25:36.743Z,23.25
2022-10-06T13:28:31.186Z,23.16
2022-10-06T13:31:24.101Z,23.06
2022-10-06T13:34:14.670Z,22.97
2022-10-06T13:37:03.203Z,22.86
2022-10-06T13:39:51.141Z,22.76
2022-10-06T13:42:40.872Z,22.70
2022-10-06T13:45:29.639Z,22.62
2022-10-06T13:48:22.171Z,22.50
2022-10-06T13:51:15.118Z,22.51
2022-10-06T13:54:07.744Z,22.41
2022-10-06T13:56:56.179Z,22.27
2022-10-06T13:59:45.593Z,22.11
2022-10-06T14:02:33.695Z,22.03
2022-10-06T14:05:26.766Z,21.95
2022-10-06T14:08:23.720Z,21.91
2022-10-06T14:11:12.326Z,21.80
2022-10-06T14:14:03.361Z,21.63
2022-10-06T14:16:54.331Z,21.51
2022-10-06T14:19:41.753Z,21.46
2022-10-06T14:22:34.257Z,21.40
2022-10-06T14:25:22.652Z,21.35
2022-10-06T14:28:10.272Z,21.29
2022-10-06T14:30:58.836Z,21.22
2022-10-06T14:33:52.318Z,21.18
2022-10-06T14:36:39.679Z,21.11
2022-10-06T14:39:28.370Z,21.03
2022-10-06T14:42:16.337Z,20.96
2022-10-06T14:45:04.445Z,20.92
2022-10-06T14:47:52.256Z,20.88
2022-10-06T14:50:43.172Z,20.87
2022-10-06T14:53:30.894Z,20.93
2022-10-06T14:56:18.523Z,20.92
2022-10-06T14:59:08.714Z,20.89
2022-10-06T15:01:56.599Z,20.95
2022-10-06T15:04:45.476Z,21.03
2022-10-06T15:07:53.548Z,21.10
2022-10-06T15:10:41.262Z,21.15
2022-10-06T15:13:32.071Z,21.23
2022-10-06T15:16:20.245Z,21.35
2022-10-06T15:19:09.293Z,21.41
2022-10-06T15:21:57.557Z,21.41
2022-10-06T15:24:50.252Z,21.41
2022-10-06T15:28:01.072Z,21.35
2022-10-06T15:30:48.618Z,21.26
2022-10-06T15:33:39.491Z,21.17
2022-10-06T15:36:27.320Z,21.02
2022-10-06T15:39:17.999Z,20.85
2022-10-06T15:42:10.521Z,20.67
2022-10-06T15:44:58.318Z,20.50
2022-10-06T15:47:46.654Z,20.33
2022-10-06T15:50:36.220Z,20.17
2022-10-06T15:53:24.009Z,19.99
2022-10-06T15:56:11.514Z,19.73
2022-10-06T15:59:00.880Z,19.50
2022-10-06T16:01:52.140Z,19.29
2022-10-06T16:04:55.513Z,19.07
2022-10-06T16:07:43.041Z,18.85
2022-10-06T16:10:30.379Z,18.64
2022-10-06T16:13:18.144Z,18.43
2022-10-06T16:16:07.642Z,18.21
2022-10-06T16:18:56.171Z,18.05
2022-10-06T16:21:46.889Z,17.82
2022-10-06T16:24:34.706Z,17.63
2022-10-06T16:27:22.654Z,17.44
2022-10-06T16:30:12.314Z,17.25
2022-10-06T16:33:00.996Z,17.05
2022-10-06T16:35:55.874Z,16.89
2022-10-06T16:38:44.964Z,16.70
2022-10-06T16:41:32.519Z,16.49
2022-10-06T16:44:20.225Z,16.31
2022-10-06T16:47:07.684Z,16.14
2022-10-06T16:49:56.545Z,15.95
2022-10-06T16:52:43.985Z,15.76
2022-10-06T16:55:31.643Z,15.57
2022-10-06T16:58:19.149Z,15.38
2022-10-06T17:01:07.755Z,15.21
2022-10-06T17:04:00.175Z,15.02
2022-10-06T17:06:51.054Z,14.86
2022-10-06T17:09:46.952Z,14.70
2022-10-06T17:12:44.298Z,14.52
2022-10-06T17:15:33.661Z,14.36
2022-10-06T17:18:21.547Z,14.19
2022-10-06T17:21:39.606Z,14.03
2022-10-06T17:24:22.557Z,13.85
2022-10-06T17:27:10.566Z,13.68
2022-10-06T17:29:58.755Z,13.54
2022-10-06T17:32:47.328Z,13.40
2022-10-06T17:35:39.117Z,13.25
2022-10-06T17:38:27.909Z,13.11
2022-10-06T17:41:19.681Z,12.97
2022-10-06T17:44:09.684Z,12.85
2022-10-06T17:47:00.280Z,12.72
2022-10-06T17:49:48.470Z,12.60
2022-10-06T17:52:39.237Z,12.46
2022-10-06T17:55:28.185Z,12.33
2022-10-06T17:58:18.840Z,12.23
2022-10-06T18:01:09.422Z,12.12
2022-10-06T18:03:57.850Z,12.03
2022-10-06T18:06:47.369Z,11.91
2022-10-06T18:09:35.804Z,11.81
2022-10-06T18:12:22.781Z,11.69
2022-10-06T18:15:15.174Z,11.58
2022-10-06T18:18:02.887Z,11.49
2022-10-06T18:20:50.741Z,11.37
2022-10-06T18:23:38.940Z,11.28
2022-10-06T18:26:26.777Z,11.19
2022-10-06T18:29:15.393Z,11.10
2022-10-06T18:38:21.731Z,10.79
2022-10-06T18:41:12.475Z,10.72
2022-10-06T18:44:00.708Z,10.63
2022-10-06T18:47:11.467Z,10.54
2022-10-06T18:50:00.621Z,10.46
2022-10-06T18:52:48.377Z,10.36
2022-10-06T18:55:36.617Z,10.28
2022-10-06T18:58:24.771Z,10.19
2022-10-06T19:01:13.071Z,10.11
2022-10-06T19:04:04.765Z,10.06
2022-10-06T19:06:56.447Z,9.98
2022-10-06T19:09:46.757Z,9.90
2022-10-06T19:12:34.911Z,9.83
2022-10-06T19:15:22.613Z,9.75
2022-10-06T19:18:09.968Z,9.68
2022-10-06T19:20:57.541Z,9.60
2022-10-06T19:23:46.922Z,9.52
2022-10-06T19:26:34.885Z,9.48
2022-10-06T19:29:23.607Z,9.42
2022-10-06T19:32:11.781Z,9.35
2022-10-06T19:34:59.342Z,9.27
2022-10-06T19:37:48.155Z,9.22
2022-10-06T19:40:37.819Z,9.20
2022-10-06T19:43:24.882Z,9.11
2022-10-06T19:46:12.931Z,9.04
2022-10-06T19:49:05.622Z,8.97
2022-10-06T19:51:54.275Z,8.92
2022-10-06T19:54:42.229Z,8.86
2022-10-06T19:57:32.522Z,8.80
2022-10-06T20:00:20.157Z,8.74
2022-10-06T20:03:08.573Z,8.69
2022-10-06T20:05:56.040Z,8.63
2022-10-06T20:08:44.354Z,8.58
2022-10-06T20:11:31.978Z,8.52
2022-10-06T20:14:23.859Z,8.46
2022-10-06T20:17:11.328Z,8.42
2022-10-06T20:19:59.242Z,8.35
2022-10-06T20:22:47.318Z,8.29
2022-10-06T20:25:36.824Z,8.24
2022-10-06T20:28:24.338Z,8.21
2022-10-06T20:31:22.819Z,8.19
2022-10-06T20:34:14.653Z,8.19
2022-10-06T20:37:04.714Z,8.14
2022-10-06T20:40:09.924Z,8.08
2022-10-06T20:42:59.391Z,8.02
2022-10-06T20:45:47.036Z,7.98
2022-10-06T20:48:36.590Z,7.92
2022-10-06T20:51:27.657Z,7.87
2022-10-06T20:54:16.334Z,7.81
2022-10-06T20:57:07.262Z,7.76
2022-10-06T20:59:54.842Z,7.73
2022-10-06T21:02:42.466Z,7.71
2022-10-06T21:05:32.743Z,7.68
2022-10-06T21:08:20.338Z,7.62
2022-10-06T21:11:07.889Z,7.56
2022-10-06T21:13:55.886Z,7.52
2022-10-06T21:16:46.403Z,7.49
2022-10-06T21:19:37.904Z,7.45
2022-10-06T21:22:29.441Z,7.37
2022-10-06T21:25:17.420Z,7.32
2022-10-06T21:28:05.349Z,7.30
2022-10-06T21:30:54.624Z,7.23
2022-10-06T21:33:44.372Z,7.19
2022-10-06T21:36:32.625Z,7.15
2022-10-06T21:39:21.613Z,7.10
2022-10-06T21:42:09.426Z,7.08
2022-10-06T21:44:56.817Z,7.05
2022-10-06T21:47:44.737Z,7.04
2022-10-06T21:50:32.341Z,7.01
2022-10-06T21:53:19.839Z,6.95
2022-10-06T21:56:09.000Z,6.89
2022-10-06T21:59:10.239Z,6.85
2022-10-06T22:01:58.076Z,6.83
2022-10-06T22:04:46.053Z,6.78
2022-10-06T22:07:33.951Z,6.74
2022-10-06T22:10:21.905Z,6.70
2022-10-06T22:13:13.906Z,6.67
2022-10-06T22:16:04.287Z,6.62
2022-10-06T22:18:52.901Z,6.61
2022-10-06T22:21:43.071Z,6.58
2022-10-06T22:24:30.955Z,6.53
2022-10-06T22:27:20.060Z,6.49
2022-10-06T22:30:11.185Z,6.46
2022-10-06T22:32:58.897Z,6.44
2022-10-06T22:35:52.975Z,6.42
2022-10-06T22:38:41.351Z,6.39
2022-10-06T22:41:29.991Z,6.36
2022-10-06T22:44:17.812Z,6.34
2022-10-06T22:47:09.648Z,6.32
2022-10-06T22:49:57.775Z,6.28
2022-10-06T22:52:45.408Z,6.27
2022-10-06T22:55:32.956Z,6.25
2022-10-06T22:58:24.150Z,6.22
2022-10-06T23:01:13.904Z,6.19
2022-10-06T23:04:03.043Z,6.18
2022-10-06T23:06:50.849Z,6.19
2022-10-06T23:09:38.376Z,6.19
2022-10-06T23:12:26.493Z,6.19
2022-10-06T23:15:14.729Z,6.16
2022-10-06T23:18:03.704Z,6.15
2022-10-06T23:20:52.618Z,6.12
2022-10-06T23:23:40.308Z,6.12
2022-10-06T23:26:28.903Z,6.07
2022-10-06T23:29:16.775Z,6.05
2022-10-06T23:32:04.507Z,6.03
2022-10-06T23:34:52.793Z,6.03
2022-10-06T23:37:42.124Z,5.99
2022-10-06T23:40:30.117Z,5.97
2022-10-06T23:43:18.243Z,5.95
2022-10-06T23:46:06.067Z,5.93
2022-10-06T23:48:53.513Z,5.91
2022-10-06T23:51:40.939Z,5.88
2022-10-06T23:54:30.155Z,5.86
2022-10-06T23:57:17.681Z,5.82
